createdAt,value
2022-09-17T00:00:15.442Z,4
2022-09-17T00:01:15.417Z,4
2022-09-17T00:02:15.643Z,3
2022-09-17T00:03:15.616Z,3
2022-09-17T00:04:15.433Z,4
2022-09-17T00:05:15.567Z,4
2022-09-17T00:06:15.429Z,3
2022-09-17T00:07:15.418Z,4
2022-09-17T00:08:15.418Z,4
2022-09-17T00:09:15.414Z,4
2022-09-17T00:10:15.492Z,3
2022-09-17T00:11:15.455Z,4
2022-09-17T00:12:15.499Z,4
2022-09-17T00:13:15.509Z,3
2022-09-17T00:14:15.416Z,4
2022-09-17T00:15:15.440Z,3
2022-09-17T00:16:15.521Z,4
2022-09-17T00:17:15.426Z,3
2022-09-17T00:18:15.537Z,4
2022-09-17T00:19:15.452Z,4
2022-09-17T00:20:15.432Z,4
2022-09-17T00:21:15.416Z,4
2022-09-17T00:22:15.409Z,4
2022-09-17T00:23:15.420Z,4
2022-09-17T00:24:15.408Z,5
2022-09-17T00:25:15.422Z,5
2022-09-17T00:26:15.462Z,4
2022-09-17T00:27:15.471Z,4
2022-09-17T00:28:15.519Z,4
2022-09-17T00:29:15.516Z,5
2022-09-17T00:30:15.546Z,4
2022-09-17T00:31:15.604Z,4
2022-09-17T00:32:15.425Z,4
2022-09-17T00:33:15.415Z,4
2022-09-17T00:34:15.479Z,4
2022-09-17T00:35:15.426Z,4
2022-09-17T00:36:15.582Z,4
2022-09-17T00:37:15.460Z,4
2022-09-17T00:38:15.441Z,4
2022-09-17T00:39:15.470Z,4
2022-09-17T00:40:15.533Z,4
2022-09-17T00:41:15.493Z,4
2022-09-17T00:42:15.458Z,4
2022-09-17T00:43:15.415Z,4
2022-09-17T00:44:15.422Z,4
2022-09-17T00:45:15.431Z,4
2022-09-17T00:46:15.489Z,4
2022-09-17T00:47:15.418Z,4
2022-09-17T00:48:15.420Z,4
2022-09-17T00:49:15.533Z,4
2022-09-17T00:50:15.471Z,4
2022-09-17T00:51:15.446Z,4
2022-09-17T00:52:15.426Z,3
2022-09-17T00:53:15.417Z,4
2022-09-17T00:54:15.413Z,4
2022-09-17T00:55:15.440Z,4
2022-09-17T00:56:15.473Z,3
2022-09-17T00:57:15.488Z,4
2022-09-17T00:58:15.448Z,4
2022-09-17T00:59:15.420Z,3
2022-09-17T01:00:15.437Z,3
2022-09-17T01:01:15.515Z,3
2022-09-17T01:02:15.477Z,3
2022-09-17T01:03:15.458Z,4
2022-09-17T01:04:15.412Z,4
2022-09-17T01:05:15.479Z,3
2022-09-17T01:06:15.502Z,3
2022-09-17T01:07:15.574Z,3
2022-09-17T01:08:15.459Z,3
2022-09-17T01:09:15.417Z,3
2022-09-17T01:10:15.483Z,3
2022-09-17T01:11:15.422Z,3
2022-09-17T01:12:15.478Z,3
2022-09-17T01:13:15.461Z,3
2022-09-17T01:14:15.408Z,3
2022-09-17T01:15:15.450Z,3
2022-09-17T01:16:15.512Z,3
2022-09-17T01:17:15.484Z,3
2022-09-17T01:24:15.613Z,3
2022-09-17T01:25:15.399Z,3
2022-09-17T01:26:15.410Z,3
2022-09-17T01:27:15.400Z,4
2022-09-17T01:28:15.489Z,4
2022-09-17T01:29:15.485Z,3
2022-09-17T01:30:15.417Z,4
2022-09-17T01:31:15.446Z,4
2022-09-17T01:32:15.506Z,4
2022-09-17T01:33:15.508Z,4
2022-09-17T01:34:15.443Z,4
2022-09-17T01:35:15.426Z,4
2022-09-17T01:36:15.536Z,4
2022-09-17T01:37:15.456Z,4
2022-09-17T01:38:15.411Z,4
2022-09-17T01:39:15.465Z,4
2022-09-17T01:40:15.531Z,4
2022-09-17T01:41:15.420Z,4
2022-09-17T01:42:15.468Z,4
2022-09-17T01:43:15.410Z,3
2022-09-17T01:44:15.465Z,4
2022-09-17T01:45:15.503Z,4
2022-09-17T01:46:15.573Z,4
2022-09-17T01:47:20.210Z,4
2022-09-17T01:48:15.420Z,4
2022-09-17T01:49:15.413Z,4
2022-09-17T01:50:15.447Z,5
2022-09-17T01:51:15.421Z,5
2022-09-17T01:52:15.458Z,5
2022-09-17T01:53:15.425Z,5
2022-09-17T01:54:15.415Z,5
2022-09-17T01:55:15.548Z,5
2022-09-17T01:56:15.450Z,5
2022-09-17T01:57:15.464Z,6
2022-09-17T01:58:15.414Z,5
2022-09-17T01:59:15.477Z,5
2022-09-17T02:00:15.508Z,5
2022-09-17T02:01:15.532Z,6
2022-09-17T02:02:15.608Z,5
2022-09-17T02:03:15.430Z,5
2022-09-17T02:04:15.407Z,6
2022-09-17T02:05:15.419Z,6
2022-09-17T02:06:15.519Z,6
2022-09-17T02:07:15.530Z,6
2022-09-17T02:08:15.536Z,6
2022-09-17T02:09:15.668Z,6
2022-09-17T02:10:15.487Z,5
2022-09-17T02:11:15.450Z,6
2022-09-17T02:12:15.420Z,5
2022-09-17T02:13:15.471Z,6
2022-09-17T02:14:15.416Z,6
2022-09-17T02:15:15.505Z,6
2022-09-17T02:16:15.520Z,6
2022-09-17T02:17:15.433Z,6
2022-09-17T02:18:15.425Z,6
2022-09-17T02:19:15.408Z,7
2022-09-17T02:20:18.592Z,7
2022-09-17T02:21:15.524Z,7
2022-09-17T02:22:15.414Z,6
2022-09-17T02:23:15.462Z,6
2022-09-17T02:24:15.457Z,7
2022-09-17T02:25:15.812Z,7
2022-09-17T02:26:15.647Z,9
2022-09-17T02:27:15.441Z,8
2022-09-17T02:28:15.424Z,8
2022-09-17T02:29:15.410Z,8
2022-09-17T02:30:15.449Z,8
2022-09-17T02:31:15.619Z,8
2022-09-17T02:32:15.415Z,8
2022-09-17T02:33:15.506Z,8
2022-09-17T02:34:15.411Z,10
2022-09-17T02:35:15.488Z,9
2022-09-17T02:36:15.515Z,9
2022-09-17T02:37:15.517Z,10
2022-09-17T02:38:15.489Z,9
2022-09-17T02:39:15.457Z,9
2022-09-17T02:40:15.516Z,9
2022-09-17T02:41:15.546Z,9
2022-09-17T02:42:15.423Z,9
2022-09-17T02:43:15.424Z,9
2022-09-17T02:44:15.404Z,9
2022-09-17T02:45:15.445Z,9
2022-09-17T02:46:15.497Z,9
2022-09-17T02:47:15.450Z,10
2022-09-17T02:48:15.421Z,10
2022-09-17T02:49:15.511Z,9
2022-09-17T02:50:15.518Z,9
2022-09-17T02:51:15.409Z,10
2022-09-17T02:52:15.473Z,10
2022-09-17T02:53:15.415Z,10
2022-09-17T02:54:15.489Z,10
2022-09-17T02:55:15.626Z,10
2022-09-17T02:56:15.422Z,9
2022-09-17T02:57:15.534Z,9
2022-09-17T02:58:15.502Z,8
2022-09-17T02:59:15.397Z,10
2022-09-17T03:00:15.537Z,9
2022-09-17T03:01:15.562Z,9
2022-09-17T03:02:15.506Z,9
2022-09-17T03:03:15.420Z,9
2022-09-17T03:04:15.399Z,9
2022-09-17T03:05:15.421Z,9
2022-09-17T03:06:15.473Z,10
2022-09-17T03:07:15.406Z,10
2022-09-17T03:08:15.408Z,10
2022-09-17T03:09:15.454Z,10
2022-09-17T03:10:15.489Z,9
2022-09-17T03:11:15.418Z,9
2022-09-17T03:12:15.405Z,9
2022-09-17T03:13:15.444Z,8
2022-09-17T03:14:15.413Z,9
2022-09-17T03:15:15.408Z,8
2022-09-17T03:16:15.581Z,8
2022-09-17T03:17:15.483Z,7
2022-09-17T03:18:15.457Z,8
2022-09-17T03:19:15.383Z,7
2022-09-17T03:20:15.504Z,7
2022-09-17T03:21:15.409Z,7
2022-09-17T03:22:15.462Z,8
2022-09-17T03:23:15.516Z,7
2022-09-17T03:24:15.402Z,7
2022-09-17T03:25:15.469Z,7
2022-09-17T03:26:15.444Z,7
2022-09-17T03:27:15.412Z,6
2022-09-17T03:28:15.520Z,7
2022-09-17T03:29:15.417Z,6
2022-09-17T03:30:15.439Z,6
2022-09-17T03:31:15.529Z,6
2022-09-17T03:32:15.443Z,7
2022-09-17T03:33:15.459Z,6
2022-09-17T03:34:15.440Z,6
2022-09-17T03:35:15.419Z,6
2022-09-17T03:36:15.418Z,7
2022-09-17T03:37:15.451Z,7
2022-09-17T03:38:15.425Z,6
2022-09-17T03:39:15.394Z,6
2022-09-17T03:40:15.517Z,7
2022-09-17T03:41:15.490Z,6
2022-09-17T03:42:15.419Z,6
2022-09-17T03:43:15.391Z,6
2022-09-17T03:44:15.406Z,6
2022-09-17T03:45:15.497Z,6
2022-09-17T03:46:15.499Z,7
2022-09-17T03:47:15.403Z,6
2022-09-17T03:48:15.458Z,6
2022-09-17T03:49:15.462Z,6
2022-09-17T03:50:15.423Z,6
2022-09-17T03:51:15.406Z,6
2022-09-17T03:52:15.483Z,6
2022-09-17T03:53:15.396Z,7
2022-09-17T03:54:15.405Z,6
2022-09-17T03:55:15.414Z,7
2022-09-17T03:56:15.455Z,6
2022-09-17T03:57:15.459Z,6
2022-09-17T03:58:15.402Z,6
2022-09-17T03:59:15.515Z,6
2022-09-17T04:00:15.445Z,6
2022-09-17T04:01:15.426Z,6
2022-09-17T04:02:15.663Z,6
2022-09-17T04:03:15.403Z,6
2022-09-17T04:04:15.472Z,6
2022-09-17T04:05:15.453Z,7
2022-09-17T04:06:15.410Z,6
2022-09-17T04:07:15.415Z,7
2022-09-17T04:08:15.406Z,6
2022-09-17T04:09:15.406Z,6
2022-09-17T04:10:15.420Z,7
2022-09-17T04:11:15.410Z,6
2022-09-17T04:12:15.446Z,7
2022-09-17T04:13:15.414Z,7
2022-09-17T04:14:15.400Z,6
2022-09-17T04:15:15.436Z,6
2022-09-17T04:16:15.544Z,7
2022-09-17T04:17:15.538Z,6
2022-09-17T04:18:15.454Z,8
2022-09-17T04:19:15.475Z,6
2022-09-17T04:20:15.465Z,6
2022-09-17T04:21:15.437Z,7
2022-09-17T04:22:15.484Z,7
2022-09-17T04:23:15.499Z,7
2022-09-17T04:24:15.415Z,6
2022-09-17T04:25:15.418Z,6
2022-09-17T04:26:15.402Z,7
2022-09-17T04:27:15.462Z,6
2022-09-17T04:28:15.556Z,6
2022-09-17T04:29:15.528Z,6
2022-09-17T04:30:15.572Z,6
2022-09-17T04:31:15.518Z,6
2022-09-17T04:32:15.403Z,6
2022-09-17T04:33:15.545Z,6
2022-09-17T04:34:15.407Z,6
2022-09-17T04:35:15.453Z,6
2022-09-17T04:36:15.462Z,5
2022-09-17T04:37:15.459Z,6
2022-09-17T04:38:15.479Z,6
2022-09-17T04:39:15.406Z,7
2022-09-17T04:40:15.475Z,6
2022-09-17T04:41:15.416Z,6
2022-09-17T04:42:15.497Z,6
2022-09-17T04:43:15.454Z,6
2022-09-17T04:44:15.402Z,6
2022-09-17T04:45:15.429Z,6
2022-09-17T04:46:15.450Z,5
2022-09-17T04:47:15.455Z,5
2022-09-17T04:48:15.438Z,5
2022-09-17T04:49:15.428Z,6
2022-09-17T04:50:15.568Z,6
2022-09-17T04:51:15.455Z,6
2022-09-17T04:52:15.407Z,5
2022-09-17T04:53:15.406Z,6
2022-09-17T04:54:15.408Z,6
2022-09-17T04:55:15.415Z,6
2022-09-17T04:56:15.418Z,5
2022-09-17T04:57:15.510Z,6
2022-09-17T04:58:15.470Z,5
2022-09-17T04:59:15.452Z,6
2022-09-17T05:00:15.430Z,7
2022-09-17T05:01:15.692Z,6
2022-09-17T05:02:15.477Z,6
2022-09-17T05:03:15.421Z,6
2022-09-17T05:04:15.400Z,6
2022-09-17T05:05:15.424Z,6
2022-09-17T05:06:15.444Z,6
2022-09-17T05:07:15.452Z,6
2022-09-17T05:08:15.456Z,6
2022-09-17T05:09:15.406Z,6
2022-09-17T05:10:15.409Z,5
2022-09-17T05:11:15.404Z,6
2022-09-17T05:12:15.418Z,4
2022-09-17T05:13:15.523Z,6
2022-09-17T05:14:15.439Z,5
2022-09-17T05:15:15.477Z,6
2022-09-17T05:16:15.499Z,5
2022-09-17T05:17:15.433Z,5
2022-09-17T05:18:15.396Z,5
2022-09-17T05:19:15.438Z,4
2022-09-17T05:20:15.449Z,5
2022-09-17T05:21:15.447Z,5
2022-09-17T05:22:19.529Z,5
2022-09-17T05:23:15.409Z,5
2022-09-17T05:24:15.403Z,5
2022-09-17T05:25:15.446Z,4
2022-09-17T05:26:15.493Z,4
2022-09-17T05:27:15.398Z,5
2022-09-17T05:28:15.486Z,5
2022-09-17T05:29:15.461Z,5
2022-09-17T05:30:15.490Z,5
2022-09-17T05:31:15.598Z,5
2022-09-17T05:32:15.570Z,5
2022-09-17T05:33:15.386Z,5
2022-09-17T05:34:15.668Z,5
2022-09-17T05:35:15.460Z,5
2022-09-17T05:36:15.431Z,5
2022-09-17T05:37:15.480Z,5
2022-09-17T05:38:15.447Z,5
2022-09-17T05:39:15.448Z,4
2022-09-17T05:40:15.594Z,5
2022-09-17T05:41:15.472Z,5
2022-09-17T05:42:15.478Z,5
2022-09-17T05:43:15.478Z,4
2022-09-17T05:44:18.079Z,4
2022-09-17T05:45:15.499Z,5
2022-09-17T05:46:15.488Z,5
2022-09-17T05:47:15.400Z,5
2022-09-17T05:48:15.406Z,5
2022-09-17T05:49:15.411Z,5
2022-09-17T05:50:15.409Z,4
2022-09-17T05:51:15.420Z,5
2022-09-17T05:52:15.401Z,5
2022-09-17T05:53:15.544Z,5
2022-09-17T05:54:15.468Z,5
2022-09-17T05:55:15.411Z,4
2022-09-17T05:56:15.404Z,4
2022-09-17T05:57:15.416Z,5
2022-09-17T05:58:15.493Z,4
2022-09-17T05:59:15.584Z,5
2022-09-17T06:00:15.426Z,4
2022-09-17T06:01:15.462Z,4
2022-09-17T06:02:15.666Z,4
2022-09-17T06:03:15.640Z,4
2022-09-17T06:04:15.400Z,4
2022-09-17T06:05:15.400Z,4
2022-09-17T06:06:15.402Z,4
2022-09-17T06:07:15.394Z,4
2022-09-17T06:08:15.453Z,4
2022-09-17T06:09:15.437Z,3
2022-09-17T06:10:15.414Z,4
2022-09-17T06:11:15.390Z,4
2022-09-17T06:12:15.406Z,4
2022-09-17T06:13:15.397Z,4
2022-09-17T06:14:15.408Z,4
2022-09-17T06:15:15.431Z,5
2022-09-17T06:16:15.537Z,4
2022-09-17T06:17:17.990Z,4
2022-09-17T06:18:15.504Z,4
2022-09-17T06:19:15.512Z,4
2022-09-17T06:20:15.520Z,4
2022-09-17T06:21:15.402Z,5
2022-09-17T06:22:15.529Z,5
2022-09-17T06:23:16.142Z,4
2022-09-17T06:24:15.436Z,3
2022-09-17T06:25:15.883Z,4
2022-09-17T06:26:15.406Z,3
2022-09-17T06:27:15.404Z,4
2022-09-17T06:28:15.397Z,3
2022-09-17T06:29:15.476Z,4
2022-09-17T06:30:15.515Z,3
2022-09-17T06:31:15.569Z,4
2022-09-17T06:32:15.446Z,3
2022-09-17T06:33:15.438Z,4
2022-09-17T06:34:15.541Z,3
2022-09-17T06:35:15.404Z,3
2022-09-17T06:36:15.432Z,3
2022-09-17T06:37:15.403Z,4
2022-09-17T06:38:15.404Z,4
2022-09-17T06:39:15.387Z,4
2022-09-17T06:40:15.507Z,3
2022-09-17T06:41:15.390Z,3
2022-09-17T06:42:15.391Z,3
2022-09-17T06:43:15.392Z,3
2022-09-17T06:44:15.389Z,3
2022-09-17T06:45:16.871Z,3
2022-09-17T06:46:15.423Z,4
2022-09-17T06:47:15.420Z,3
2022-09-17T06:48:15.460Z,4
2022-09-17T06:49:15.410Z,4
2022-09-17T06:50:15.523Z,3
2022-09-17T06:51:15.395Z,4
2022-09-17T06:52:15.399Z,3
2022-09-17T06:53:15.410Z,4
2022-09-17T06:54:15.391Z,3
2022-09-17T06:55:15.475Z,4
2022-09-17T06:56:15.529Z,4
2022-09-17T06:57:15.397Z,4
2022-09-17T06:58:15.521Z,4
2022-09-17T06:59:15.496Z,3
2022-09-17T07:00:15.530Z,3
2022-09-17T07:01:15.561Z,3
2022-09-17T07:02:15.492Z,3
2022-09-17T07:03:17.226Z,3
2022-09-17T07:04:15.448Z,3
2022-09-17T07:05:15.544Z,3
2022-09-17T07:06:15.433Z,3
2022-09-17T07:07:15.402Z,3
2022-09-17T07:08:15.413Z,3
2022-09-17T07:09:15.431Z,3
2022-09-17T07:10:15.432Z,3
2022-09-17T07:11:15.467Z,3
2022-09-17T07:12:15.437Z,3
2022-09-17T07:13:15.390Z,3
2022-09-17T07:14:15.394Z,3
2022-09-17T07:15:15.463Z,3
2022-09-17T07:16:15.554Z,3
2022-09-17T07:17:15.473Z,3
2022-09-17T07:18:15.399Z,3
2022-09-17T07:19:15.484Z,3
2022-09-17T07:20:15.553Z,3
2022-09-17T07:21:15.388Z,4
2022-09-17T07:22:15.503Z,3
2022-09-17T07:23:15.512Z,3
2022-09-17T07:24:15.390Z,3
2022-09-17T07:25:15.421Z,3
2022-09-17T07:26:15.449Z,3
2022-09-17T07:27:15.530Z,3
2022-09-17T07:28:15.414Z,3
2022-09-17T07:29:15.450Z,3
2022-09-17T07:30:15.435Z,3
2022-09-17T07:31:16.832Z,4
2022-09-17T07:32:15.466Z,5
2022-09-17T07:33:15.463Z,5
2022-09-17T07:34:15.438Z,5
2022-09-17T07:35:15.497Z,5
2022-09-17T07:36:15.612Z,4
2022-09-17T07:37:15.608Z,4
2022-09-17T07:38:15.498Z,4
2022-09-17T07:39:15.410Z,4
2022-09-17T07:40:15.514Z,4
2022-09-17T07:41:15.419Z,4
2022-09-17T07:42:15.446Z,4
2022-09-17T07:43:15.436Z,3
2022-09-17T07:44:15.401Z,3
2022-09-17T07:45:15.431Z,3
2022-09-17T07:46:15.486Z,4
2022-09-17T07:47:15.455Z,3
2022-09-17T07:48:15.382Z,4
2022-09-17T07:49:15.387Z,4
2022-09-17T07:50:15.478Z,4
2022-09-17T07:51:15.479Z,3
2022-09-17T07:52:15.498Z,3
2022-09-17T07:53:15.487Z,3
2022-09-17T07:54:15.381Z,3
2022-09-17T07:55:15.386Z,4
2022-09-17T07:56:15.403Z,4
2022-09-17T07:57:15.444Z,4
2022-09-17T07:58:15.427Z,3
2022-09-17T07:59:15.420Z,3
2022-09-17T08:00:15.478Z,4
2022-09-17T08:01:15.397Z,4
2022-09-17T08:02:15.512Z,4
2022-09-17T08:03:15.557Z,4
2022-09-17T08:04:15.388Z,5
2022-09-17T08:05:15.489Z,4
2022-09-17T08:06:15.490Z,3
2022-09-17T08:07:15.507Z,3
2022-09-17T08:08:20.337Z,3
2022-09-17T08:09:15.403Z,3
2022-09-17T08:10:15.418Z,3
2022-09-17T08:11:23.708Z,3
2022-09-17T08:12:15.419Z,3
2022-09-17T08:13:15.530Z,3
2022-09-17T08:14:15.505Z,3
2022-09-17T08:15:15.610Z,3
2022-09-17T08:16:15.688Z,3
2022-09-17T08:17:15.448Z,3
2022-09-17T08:18:15.389Z,3
2022-09-17T08:19:15.426Z,3
2022-09-17T08:20:15.475Z,3
2022-09-17T08:21:15.470Z,3
2022-09-17T08:22:15.486Z,3
2022-09-17T08:23:15.486Z,3
2022-09-17T08:24:15.405Z,3
2022-09-17T08:25:15.399Z,3
2022-09-17T08:26:15.398Z,4
2022-09-17T08:27:15.399Z,3
2022-09-17T08:28:15.406Z,3
2022-09-17T08:29:15.520Z,3
2022-09-17T08:30:15.440Z,3
2022-09-17T08:31:15.513Z,3
2022-09-17T08:32:15.400Z,3
2022-09-17T08:33:15.461Z,2
2022-09-17T08:34:15.394Z,2
2022-09-17T08:35:15.395Z,3
2022-09-17T08:36:15.444Z,2
2022-09-17T08:37:15.480Z,2
2022-09-17T08:38:15.526Z,2
2022-09-17T08:39:15.488Z,2
2022-09-17T08:40:15.612Z,3
2022-09-17T08:41:15.498Z,2
2022-09-17T08:42:15.397Z,3
2022-09-17T08:43:15.416Z,3
2022-09-17T08:44:15.444Z,2
2022-09-17T08:45:15.457Z,3
2022-09-17T08:46:15.466Z,4
2022-09-17T08:47:15.385Z,4
2022-09-17T08:48:15.715Z,3
2022-09-17T08:49:15.442Z,5
2022-09-17T08:50:15.538Z,3
2022-09-17T08:51:15.387Z,4
2022-09-17T08:52:15.547Z,3
2022-09-17T08:53:15.480Z,4
2022-09-17T08:54:15.584Z,3
2022-09-17T08:55:15.576Z,3
2022-09-17T08:56:15.711Z,3
2022-09-17T08:57:15.876Z,2
2022-09-17T08:58:15.702Z,4
2022-09-17T08:59:18.493Z,2
2022-09-17T09:00:15.705Z,3
2022-09-17T09:01:15.803Z,2
2022-09-17T09:02:15.495Z,2
2022-09-17T09:03:15.397Z,2
2022-09-17T09:04:15.446Z,2
2022-09-17T09:05:15.398Z,3
2022-09-17T09:06:15.401Z,2
2022-09-17T09:07:15.464Z,3
2022-09-17T09:08:15.473Z,2
2022-09-17T09:09:15.517Z,2
2022-09-17T09:10:15.406Z,2
2022-09-17T09:11:15.498Z,2
2022-09-17T09:12:15.509Z,2
2022-09-17T09:13:15.519Z,3
2022-09-17T09:14:15.397Z,2
2022-09-17T09:15:15.434Z,2
2022-09-17T09:16:15.585Z,2
2022-09-17T09:17:15.395Z,2
2022-09-17T09:18:15.432Z,2
2022-09-17T09:19:15.438Z,2
2022-09-17T09:20:15.455Z,2
2022-09-17T09:21:15.391Z,2
2022-09-17T09:22:15.401Z,2
2022-09-17T09:23:15.569Z,2
2022-09-17T09:24:15.439Z,2
2022-09-17T09:25:15.431Z,2
2022-09-17T09:26:15.475Z,2
2022-09-17T09:27:15.482Z,2
2022-09-17T09:28:15.506Z,2
2022-09-17T09:29:15.391Z,2
2022-09-17T09:30:15.390Z,2
2022-09-17T09:31:15.514Z,2
2022-09-17T09:32:16.858Z,2
2022-09-17T09:33:15.430Z,2
2022-09-17T09:34:15.393Z,2
2022-09-17T09:35:15.397Z,2
2022-09-17T09:36:15.395Z,2
2022-09-17T09:37:15.448Z,2
2022-09-17T09:38:15.391Z,2
2022-09-17T09:39:15.436Z,2
2022-09-17T09:40:15.721Z,2
2022-09-17T09:41:15.487Z,2
2022-09-17T09:42:15.493Z,2
2022-09-17T09:43:15.400Z,2
2022-09-17T09:44:15.707Z,2
2022-09-17T09:45:15.401Z,2
2022-09-17T09:46:15.502Z,2
2022-09-17T09:47:15.522Z,2
2022-09-17T09:48:15.421Z,2
2022-09-17T09:49:15.418Z,2
2022-09-17T09:50:15.401Z,2
2022-09-17T09:51:15.437Z,2
2022-09-17T09:52:15.374Z,2
2022-09-17T09:53:15.450Z,2
2022-09-17T09:54:15.454Z,2
2022-09-17T09:55:15.427Z,2
2022-09-17T09:56:15.397Z,2
2022-09-17T09:57:15.478Z,2
2022-09-17T09:58:15.394Z,2
2022-09-17T09:59:15.392Z,2
2022-09-17T10:00:15.502Z,2
2022-09-17T10:01:15.445Z,2
2022-09-17T10:02:15.540Z,2
2022-09-17T10:03:15.512Z,2
2022-09-17T10:04:15.548Z,2
2022-09-17T10:05:15.414Z,2
2022-09-17T10:06:15.435Z,2
2022-09-17T10:07:15.398Z,2
2022-09-17T10:08:15.532Z,1
2022-09-17T10:09:15.549Z,2
2022-09-17T10:10:15.635Z,2
2022-09-17T10:11:15.707Z,2
2022-09-17T10:12:15.386Z,2
2022-09-17T10:13:15.492Z,2
2022-09-17T10:14:15.409Z,2
2022-09-17T10:15:15.412Z,2
2022-09-17T10:16:15.418Z,2
2022-09-17T10:17:15.416Z,2
2022-09-17T10:18:15.530Z,2
2022-09-17T10:19:15.521Z,2
2022-09-17T10:20:18.331Z,2
2022-09-17T10:21:15.383Z,2
2022-09-17T10:22:15.436Z,2
2022-09-17T10:23:15.394Z,2
2022-09-17T10:24:15.396Z,2
2022-09-17T10:25:15.410Z,2
2022-09-17T10:26:15.448Z,2
2022-09-17T10:27:15.386Z,2
2022-09-17T10:28:15.428Z,2
2022-09-17T10:29:15.385Z,2
2022-09-17T10:30:15.404Z,2
2022-09-17T10:31:15.478Z,2
2022-09-17T10:32:15.397Z,1
2022-09-17T10:33:15.420Z,1
2022-09-17T10:34:15.445Z,1
2022-09-17T10:35:15.401Z,2
2022-09-17T10:36:15.379Z,2
2022-09-17T10:37:15.396Z,2
2022-09-17T10:38:15.381Z,2
2022-09-17T10:39:15.388Z,2
2022-09-17T10:40:15.452Z,1
2022-09-17T10:41:15.435Z,1
2022-09-17T10:42:15.554Z,2
2022-09-17T10:43:15.386Z,2
2022-09-17T10:44:15.385Z,2
2022-09-17T10:45:15.409Z,2
2022-09-17T10:46:15.454Z,2
2022-09-17T10:47:15.446Z,2
2022-09-17T10:48:15.401Z,2
2022-09-17T10:49:15.438Z,2
2022-09-17T10:50:15.414Z,2
2022-09-17T10:51:15.476Z,2
2022-09-17T10:52:15.540Z,2
2022-09-17T10:53:15.584Z,2
2022-09-17T10:54:15.723Z,2
2022-09-17T10:55:15.711Z,2
2022-09-17T10:56:15.554Z,1
2022-09-17T10:57:15.458Z,1
2022-09-17T10:58:15.406Z,2
2022-09-17T10:59:15.401Z,2
2022-09-17T11:00:15.482Z,2
2022-09-17T11:01:15.502Z,2
2022-09-17T11:02:15.594Z,2
2022-09-17T11:03:15.395Z,1
2022-09-17T11:04:15.436Z,2
2022-09-17T11:05:15.403Z,1
2022-09-17T11:06:15.418Z,1
2022-09-17T11:07:15.396Z,2
2022-09-17T11:08:15.379Z,2
2022-09-17T11:09:15.393Z,2
2022-09-17T11:10:15.453Z,2
2022-09-17T11:11:15.559Z,1
2022-09-17T11:12:15.439Z,2
2022-09-17T11:13:15.536Z,1
2022-09-17T11:14:15.470Z,1
2022-09-17T11:15:15.414Z,1
2022-09-17T11:16:15.451Z,1
2022-09-17T11:17:15.493Z,1
2022-09-17T11:18:15.414Z,1
2022-09-17T11:19:15.452Z,1
2022-09-17T11:20:15.523Z,2
2022-09-17T11:21:15.393Z,1
2022-09-17T11:22:15.402Z,2
2022-09-17T11:23:15.438Z,1
2022-09-17T11:24:15.397Z,1
2022-09-17T11:25:15.460Z,1
2022-09-17T11:26:15.548Z,1
2022-09-17T11:27:15.440Z,2
2022-09-17T11:28:15.462Z,1
2022-09-17T11:29:15.454Z,1
2022-09-17T11:30:15.479Z,1
2022-09-17T11:31:16.803Z,1
2022-09-17T11:32:15.521Z,1
2022-09-17T11:33:15.744Z,1
2022-09-17T11:34:15.435Z,2
2022-09-17T11:35:15.447Z,1
2022-09-17T11:36:15.492Z,1
2022-09-17T11:37:15.388Z,1
2022-09-17T11:38:15.444Z,1
2022-09-17T11:39:15.423Z,1
2022-09-17T11:40:15.481Z,1
2022-09-17T11:41:15.426Z,1
2022-09-17T11:42:15.429Z,1
2022-09-17T11:43:15.440Z,1
2022-09-17T11:44:15.509Z,1
2022-09-17T11:45:15.395Z,2
2022-09-17T11:46:15.459Z,2
2022-09-17T11:47:15.452Z,1
2022-09-17T11:48:16.969Z,1
2022-09-17T11:49:15.587Z,2
2022-09-17T11:50:15.577Z,1
2022-09-17T11:51:15.432Z,1
2022-09-17T11:52:15.377Z,2
2022-09-17T11:53:15.391Z,1
2022-09-17T11:54:15.386Z,1
2022-09-17T11:55:15.395Z,1
2022-09-17T11:56:16.746Z,2
2022-09-17T11:57:15.386Z,2
2022-09-17T11:58:15.426Z,2
2022-09-17T11:59:15.377Z,1
2022-09-17T12:00:15.549Z,2
2022-09-17T12:01:15.394Z,2
2022-09-17T12:02:15.565Z,2
2022-09-17T12:03:15.564Z,1
2022-09-17T12:04:15.389Z,1
2022-09-17T12:05:15.400Z,1
2022-09-17T12:06:15.423Z,1
2022-09-17T12:07:15.404Z,1
2022-09-17T12:08:15.388Z,1
2022-09-17T12:09:15.417Z,1
2022-09-17T12:10:15.433Z,1
2022-09-17T12:11:15.434Z,1
2022-09-17T12:12:37.959Z,1
2022-09-17T12:13:15.445Z,1
2022-09-17T12:14:15.421Z,1
2022-09-17T12:15:15.509Z,2
2022-09-17T12:16:15.555Z,1
2022-09-17T12:17:15.453Z,1
2022-09-17T12:18:32.584Z,1
2022-09-17T12:19:15.469Z,1
2022-09-17T12:20:15.408Z,1
2022-09-17T12:21:15.441Z,1
2022-09-17T12:22:15.474Z,1
2022-09-17T12:23:15.496Z,1
2022-09-17T12:24:15.396Z,1
2022-09-17T12:25:15.397Z,1
2022-09-17T12:26:15.404Z,1
2022-09-17T12:27:15.445Z,2
2022-09-17T12:28:15.389Z,1
2022-09-17T12:29:15.442Z,2
2022-09-17T12:30:18.268Z,2
2022-09-17T12:31:15.513Z,2
2022-09-17T12:32:15.478Z,3
2022-09-17T12:33:15.388Z,2
2022-09-17T12:34:15.383Z,2
2022-09-17T12:35:15.415Z,3
2022-09-17T12:36:15.477Z,2
2022-09-17T12:37:15.443Z,2
2022-09-17T12:38:15.422Z,2
2022-09-17T12:39:15.395Z,1
2022-09-17T12:40:15.646Z,1
2022-09-17T12:41:15.458Z,2
2022-09-17T12:42:15.397Z,1
2022-09-17T12:43:15.390Z,1
2022-09-17T12:44:15.449Z,1
2022-09-17T12:45:15.452Z,1
2022-09-17T12:46:15.813Z,2
2022-09-17T12:47:15.452Z,1
2022-09-17T12:48:15.763Z,1
2022-09-17T12:49:15.737Z,1
2022-09-17T12:50:15.711Z,1
2022-09-17T12:51:15.401Z,1
2022-09-17T12:52:15.450Z,1
2022-09-17T12:53:15.435Z,1
2022-09-17T12:54:15.412Z,1
2022-09-17T12:55:15.390Z,2
2022-09-17T12:56:15.395Z,1
2022-09-17T12:57:15.387Z,2
2022-09-17T12:58:15.412Z,1
2022-09-17T12:59:15.399Z,1
2022-09-17T13:00:15.443Z,1
2022-09-17T13:01:15.596Z,1
2022-09-17T13:02:15.594Z,1
2022-09-17T13:03:15.401Z,1
2022-09-17T13:04:15.394Z,1
2022-09-17T13:05:15.435Z,1
2022-09-17T13:06:15.386Z,1
2022-09-17T13:07:15.393Z,1
2022-09-17T13:08:15.484Z,2
2022-09-17T13:09:15.393Z,1
2022-09-17T13:10:15.454Z,1
2022-09-17T13:11:15.500Z,1
2022-09-17T13:12:15.403Z,1
2022-09-17T13:13:15.401Z,1
2022-09-17T13:14:15.624Z,1
2022-09-17T13:15:15.481Z,1
2022-09-17T13:16:18.294Z,1
2022-09-17T13:17:15.431Z,2
2022-09-17T13:18:26.180Z,2
2022-09-17T13:19:16.833Z,3
2022-09-17T13:20:15.436Z,2
2022-09-17T13:21:15.397Z,2
2022-09-17T13:22:15.469Z,2
2022-09-17T13:23:15.478Z,2
2022-09-17T13:24:15.399Z,2
2022-09-17T13:25:15.404Z,2
2022-09-17T13:26:15.500Z,2
2022-09-17T13:27:15.378Z,1
2022-09-17T13:28:15.392Z,1
2022-09-17T13:29:15.509Z,1
2022-09-17T13:30:15.542Z,2
2022-09-17T13:31:15.484Z,1
2022-09-17T13:32:15.396Z,1
2022-09-17T13:33:15.537Z,1
2022-09-17T13:34:15.384Z,1
2022-09-17T13:35:15.409Z,1
2022-09-17T13:36:15.471Z,1
2022-09-17T13:37:15.462Z,1
2022-09-17T13:38:16.441Z,1
2022-09-17T13:39:15.445Z,1
2022-09-17T13:40:15.429Z,2
2022-09-17T13:41:15.380Z,1
2022-09-17T13:42:15.483Z,1
2022-09-17T13:43:15.385Z,1
2022-09-17T13:44:15.384Z,1
2022-09-17T13:45:15.440Z,1
2022-09-17T13:46:15.626Z,1
2022-09-17T13:47:15.410Z,1
2022-09-17T13:48:15.432Z,1
2022-09-17T13:49:15.379Z,1
2022-09-17T13:50:15.397Z,1
2022-09-17T13:51:15.433Z,1
2022-09-17T13:52:15.390Z,2
2022-09-17T13:53:15.416Z,2
2022-09-17T13:54:15.431Z,2
2022-09-17T13:55:15.400Z,1
2022-09-17T13:56:15.390Z,1
2022-09-17T13:57:15.508Z,1
2022-09-17T13:58:15.412Z,1
2022-09-17T13:59:15.399Z,1
2022-09-17T14:00:15.401Z,1
2022-09-17T14:01:15.646Z,1
2022-09-17T14:02:15.458Z,1
2022-09-17T14:03:15.437Z,1
2022-09-17T14:04:15.566Z,1
2022-09-17T14:05:15.403Z,1
2022-09-17T14:06:15.388Z,1
2022-09-17T14:07:15.465Z,1
2022-09-17T14:08:15.450Z,1
2022-09-17T14:09:15.443Z,1
2022-09-17T14:10:15.404Z,1
2022-09-17T14:11:15.434Z,2
2022-09-17T14:12:15.375Z,1
2022-09-17T14:13:15.384Z,1
2022-09-17T14:14:15.386Z,1
2022-09-17T14:15:15.394Z,1
2022-09-17T14:16:15.531Z,1
2022-09-17T14:17:15.418Z,2
2022-09-17T14:18:15.385Z,1
2022-09-17T14:19:15.470Z,2
2022-09-17T14:20:15.435Z,1
2022-09-17T14:21:15.377Z,1
2022-09-17T14:22:15.469Z,2
2022-09-17T14:23:15.456Z,1
2022-09-17T14:24:15.449Z,1
2022-09-17T14:25:15.451Z,1
2022-09-17T14:26:15.394Z,1
2022-09-17T14:27:15.415Z,1
2022-09-17T14:28:15.391Z,1
2022-09-17T14:29:15.398Z,1
2022-09-17T14:30:15.414Z,1
2022-09-17T14:31:15.532Z,1
2022-09-17T14:32:15.448Z,1
2022-09-17T14:33:15.388Z,1
2022-09-17T14:34:15.416Z,1
2022-09-17T14:35:19.807Z,1
2022-09-17T14:36:15.425Z,1
2022-09-17T14:37:15.433Z,2
2022-09-17T14:38:15.434Z,1
2022-09-17T14:39:15.504Z,1
2022-09-17T14:40:15.699Z,1
2022-09-17T14:41:15.462Z,1
2022-09-17T14:42:15.420Z,1
2022-09-17T14:43:15.421Z,1
2022-09-17T14:44:15.388Z,1
2022-09-17T14:45:15.494Z,0
2022-09-17T14:46:15.549Z,1
2022-09-17T14:47:15.492Z,1
2022-09-17T14:48:15.383Z,1
2022-09-17T14:49:15.456Z,1
2022-09-17T14:50:15.447Z,1
2022-09-17T14:51:15.397Z,1
2022-09-17T14:52:15.716Z,1